Главная страница
METAR-TAF:

METAR-TAF

Аэропорты :

Брянск, Россия

широта: 53-15N, долгота: 034-19E, высота над уровнем моря: 217 м

Текущие метеонаблюдения

Эта сводка был подготовлена 48 минут назад, в 02:00 UTC
Штиль
Температура 13°C
Влажность 82%
Давление 1015 hPa
Видимость 10 км и более
Нет облачности ниже 1500 м, и нет кучево-дождевой облачности

METAR: UUBP 210200Z 00000MPS CAVOK 13/10 Q1015 R34/CLRD70 NOSIG RMK QFE744/0992

Время: 05:48 (02:48 UTC)

Прогноз

Эта сводка был подготовлена 12 часа и 58 минут назад, в 13:50 UTC
Прогноз действительный с 20-го 15 UTC до 20-го 24 UTC
Ветер 12 Узел от западный
Видимость 10 км и более
Отдельные облака на высоте 4000 фута
временами
С 20-го 15 UTC до 20-го 17 UTC
Ветер 12 Узел от западный-юго-западный с порывами до 21 Узел

TAF: UUBP 201350Z 2015/2024 27006MPS 9999 SCT040 TEMPO 2015/2017 24006G11MPS

Метеонаблюдения и прогнозы для более 4000 аэропортов (сводки METAR и TAF).

Имеющиеся станции представлены на карте желтыми и красными точками.

Чтобы увидеть название станции, наведите на нее мышь.

Затем щелкните, чтобы увидеть метеонаблюдения и метеопрогнозы.

Управление картой: чтобы увеличить масштаб, щелкните зеленые кнопки с черным крестиком; чтобы уменьшить масштаб, щелкните зеленую кнопку с тире; для просмотра соседних карт щелкайте зеленые стрелки.


METAR-TAF: